createdAt,value
2019-04-09T00:00:26.866Z,8.20
2019-04-09T00:05:18.778Z,8.00
2019-04-09T00:10:10.140Z,8.00
2019-04-09T00:15:00.753Z,7.80
2019-04-09T00:19:51.999Z,7.50
2019-04-09T00:24:42.221Z,7.30
2019-04-09T00:29:33.126Z,7.20
2019-04-09T00:34:24.040Z,7.40
2019-04-09T00:39:14.960Z,7.90
2019-04-09T00:44:06.170Z,7.90
2019-04-09T00:48:57.630Z,7.40
2019-04-09T00:53:48.530Z,7.40
2019-04-09T00:58:39.583Z,7.20
2019-04-09T01:03:30.503Z,7.00
2019-04-09T01:08:21.515Z,6.90
2019-04-09T01:13:12.439Z,7.20
2019-04-09T01:18:03.337Z,7.80
2019-04-09T01:22:54.339Z,7.70
2019-04-09T01:27:46.027Z,7.30
2019-04-09T01:38:00.642Z,7.10
2019-04-09T01:42:51.617Z,6.80
2019-04-09T01:47:45.284Z,6.90
2019-04-09T01:52:37.209Z,7.40
2019-04-09T01:57:43.972Z,7.70
2019-04-09T02:02:35.805Z,7.50
2019-04-09T02:07:28.271Z,7.10
2019-04-09T02:12:20.183Z,7.00
2019-04-09T02:17:17.837Z,6.90
2019-04-09T02:22:13.777Z,6.80
2019-04-09T02:27:10.332Z,6.70
2019-04-09T02:32:02.054Z,7.30
2019-04-09T02:36:59.023Z,7.30
2019-04-09T02:47:15.785Z,7.00
2019-04-09T02:52:11.372Z,6.70
2019-04-09T02:57:05.630Z,6.60
2019-04-09T03:01:59.637Z,6.40
2019-04-09T03:06:52.449Z,6.60
2019-04-09T03:17:01.970Z,7.20
2019-04-09T03:21:59.204Z,7.00
2019-04-09T03:26:53.624Z,6.80
2019-04-09T03:31:45.414Z,6.50
2019-04-09T03:42:00.310Z,6.40
2019-04-09T03:46:57.327Z,6.40
2019-04-09T03:51:48.247Z,7.00
2019-04-09T03:56:39.168Z,7.10
2019-04-09T04:01:33.118Z,6.80
2019-04-09T04:06:32.160Z,6.40
2019-04-09T04:11:28.179Z,6.40
2019-04-09T04:16:22.001Z,6.10
2019-04-09T04:21:17.695Z,6.10
2019-04-09T04:26:20.225Z,6.80
2019-04-09T04:31:11.354Z,6.80
2019-04-09T04:36:09.405Z,6.90
2019-04-09T04:46:27.144Z,6.20
2019-04-09T04:51:24.935Z,6.10
2019-04-09T04:56:17.398Z,6.00
2019-04-09T05:01:14.167Z,5.90
2019-04-09T05:06:05.925Z,6.00
2019-04-09T05:10:57.631Z,6.60
2019-04-09T05:15:50.162Z,6.40
2019-04-09T05:20:45.742Z,6.40
2019-04-09T05:25:43.158Z,5.90
2019-04-09T05:30:37.205Z,5.90
2019-04-09T05:35:32.583Z,5.70
2019-04-09T05:40:27.298Z,5.60
2019-04-09T05:45:19.084Z,5.70
2019-04-09T05:50:21.383Z,6.20
2019-04-09T05:55:14.458Z,6.30
2019-04-09T06:00:12.188Z,6.30
2019-04-09T06:05:04.783Z,6.10
2019-04-09T06:09:55.577Z,6.00
2019-04-09T06:14:46.493Z,5.90
2019-04-09T06:19:37.896Z,5.80
2019-04-09T06:24:29.209Z,5.80
2019-04-09T06:29:23.186Z,6.70
2019-04-09T06:34:16.217Z,6.80
2019-04-09T06:39:06.602Z,6.70
2019-04-09T06:44:00.279Z,6.40
2019-04-09T06:48:51.111Z,6.40
2019-04-09T06:53:43.862Z,6.40
2019-04-09T06:58:36.574Z,6.30
2019-04-09T07:03:28.440Z,6.30
2019-04-09T07:08:24.913Z,6.60
2019-04-09T07:13:18.080Z,7.30
2019-04-09T07:18:13.255Z,7.20
2019-04-09T07:23:08.511Z,7.30
2019-04-09T07:28:02.411Z,7.10
2019-04-09T07:32:59.268Z,7.10
2019-04-09T07:37:51.745Z,7.00
2019-04-09T07:42:49.491Z,7.00
2019-04-09T07:53:06.682Z,8.10
2019-04-09T07:58:06.784Z,8.30
2019-04-09T08:02:58.927Z,8.00
2019-04-09T08:08:02.361Z,7.90
2019-04-09T08:12:52.372Z,7.90
2019-04-09T08:17:50.381Z,7.80
2019-04-09T08:28:09.484Z,8.90
2019-04-09T08:33:04.234Z,8.80
2019-04-09T08:37:59.701Z,8.90
2019-04-09T08:42:50.957Z,8.80
2019-04-09T08:53:26.388Z,8.70
2019-04-09T08:58:24.746Z,9.10
2019-04-09T09:03:12.720Z,9.10
2019-04-09T09:08:05.638Z,9.80
2019-04-09T09:13:01.279Z,10.10
2019-04-09T09:18:07.645Z,10.10
2019-04-09T09:22:59.296Z,10.00
2019-04-09T09:27:51.869Z,9.90
2019-04-09T09:32:49.095Z,9.90
2019-04-09T09:37:40.597Z,10.30
2019-04-09T09:42:34.125Z,10.30
2019-04-09T09:47:31.084Z,10.90
2019-04-09T09:52:28.008Z,10.90
2019-04-09T09:57:18.731Z,10.80
2019-04-09T10:02:30.844Z,10.70
2019-04-09T10:07:36.155Z,10.70
2019-04-09T10:12:28.650Z,10.70
2019-04-09T10:17:13.410Z,11.10
2019-04-09T10:22:04.667Z,11.70
2019-04-09T10:27:01.422Z,11.80
2019-04-09T10:31:53.082Z,11.60
2019-04-09T10:36:45.499Z,11.60
2019-04-09T10:41:49.800Z,11.60
2019-04-09T10:46:40.092Z,12.10
2019-04-09T10:51:41.087Z,12.70
2019-04-09T10:56:33.415Z,12.70
2019-04-09T11:01:35.194Z,13.00
2019-04-09T11:06:27.067Z,13.10
2019-04-09T11:11:21.734Z,13.20
2019-04-09T11:16:10.692Z,13.40
2019-04-09T11:26:32.218Z,14.40
2019-04-09T11:31:24.317Z,15.50
2019-04-09T11:36:15.578Z,15.80
2019-04-09T11:41:09.123Z,16.10
2019-04-09T11:46:06.229Z,16.10
2019-04-09T11:51:02.102Z,16.40
2019-04-09T11:55:59.802Z,17.00
2019-04-09T12:00:57.083Z,17.80
2019-04-09T12:11:23.362Z,18.70
2019-04-09T12:16:18.058Z,18.70
2019-04-09T12:21:11.173Z,19.10
2019-04-09T12:26:04.850Z,19.50
2019-04-09T12:31:01.517Z,20.30
2019-04-09T12:35:54.462Z,20.20
2019-04-09T12:40:50.023Z,20.20
2019-04-09T12:51:02.562Z,20.00
2019-04-09T12:55:53.506Z,20.20
2019-04-09T13:00:45.331Z,20.30
2019-04-09T13:05:43.443Z,20.20
2019-04-09T13:10:38.046Z,19.50
2019-04-09T13:15:34.995Z,19.50
2019-04-09T13:20:26.261Z,19.50
2019-04-09T13:25:17.759Z,19.70
2019-04-09T13:30:15.755Z,19.60
2019-04-09T13:40:33.109Z,18.90
2019-04-09T13:45:28.186Z,18.60
2019-04-09T13:50:21.351Z,18.70
2019-04-09T13:55:14.350Z,18.70
2019-04-09T14:00:05.056Z,18.70
2019-04-09T14:04:57.684Z,18.50
2019-04-09T14:09:48.430Z,18.40
2019-04-09T14:14:39.352Z,18.40
2019-04-09T14:19:30.260Z,18.60
2019-04-09T14:24:21.165Z,18.50
2019-04-09T14:29:12.833Z,18.00
2019-04-09T14:34:03.739Z,18.00
2019-04-09T14:38:54.703Z,17.80
2019-04-09T14:43:48.115Z,17.90
2019-04-09T14:48:37.234Z,18.20
2019-04-09T14:53:28.410Z,17.80
2019-04-09T14:58:19.311Z,17.80
2019-04-09T15:03:15.015Z,17.60
2019-04-09T15:08:02.182Z,17.70
2019-04-09T15:12:53.057Z,18.20
2019-04-09T15:17:43.907Z,18.20
2019-04-09T15:22:34.743Z,18.00
2019-04-09T15:27:26.410Z,17.50
2019-04-09T15:32:17.333Z,17.50
2019-04-09T15:37:08.370Z,17.30
2019-04-09T15:41:59.630Z,17.50
2019-04-09T15:46:51.388Z,17.00
2019-04-09T15:51:41.827Z,17.00
2019-04-09T15:56:32.868Z,16.60
2019-04-09T16:01:23.694Z,16.20
2019-04-09T16:06:14.620Z,16.00
2019-04-09T16:11:06.252Z,16.20
2019-04-09T16:15:57.970Z,16.10
2019-04-09T16:20:48.131Z,15.70
2019-04-09T16:25:38.500Z,15.30
2019-04-09T16:30:29.373Z,14.90
2019-04-09T16:35:21.100Z,14.70
2019-04-09T16:40:12.758Z,14.60
2019-04-09T16:45:07.344Z,14.90
2019-04-09T16:49:54.253Z,14.70
2019-04-09T16:54:45.222Z,14.40
2019-04-09T16:59:35.659Z,14.00
2019-04-09T17:04:28.819Z,13.60
2019-04-09T17:09:25.933Z,13.60
2019-04-09T17:14:09.146Z,14.00
2019-04-09T17:18:59.756Z,13.80
2019-04-09T17:23:52.175Z,13.00
2019-04-09T17:28:43.896Z,13.00
2019-04-09T17:33:34.985Z,12.50
2019-04-09T17:38:26.064Z,12.50
2019-04-09T17:43:16.768Z,12.80
2019-04-09T17:48:07.730Z,12.90
2019-04-09T17:52:59.386Z,12.20
2019-04-09T17:57:51.417Z,12.20
2019-04-09T18:02:41.239Z,11.90
2019-04-09T18:07:32.148Z,11.60
2019-04-09T18:12:24.132Z,11.70
2019-04-09T18:17:13.972Z,12.00
2019-04-09T18:22:05.650Z,11.40
2019-04-09T18:26:56.893Z,11.40
2019-04-09T18:31:48.285Z,10.70
2019-04-09T18:36:39.194Z,10.70
2019-04-09T18:41:30.490Z,10.50
2019-04-09T18:46:21.846Z,10.80
2019-04-09T18:51:12.288Z,10.90
2019-04-09T18:56:04.630Z,10.70
2019-04-09T19:00:54.856Z,10.40
2019-04-09T19:05:45.383Z,10.00
2019-04-09T19:10:37.031Z,9.60
2019-04-09T19:15:28.699Z,10.00
2019-04-09T19:20:19.653Z,10.00
2019-04-09T19:25:11.522Z,10.10
2019-04-09T19:30:01.829Z,9.80
2019-04-09T19:34:52.404Z,9.50
2019-04-09T19:39:43.470Z,9.20
2019-04-09T19:44:37.129Z,9.00
2019-04-09T19:49:26.800Z,9.20
2019-04-09T19:54:17.692Z,9.40
2019-04-09T19:59:09.245Z,9.40
2019-04-09T20:03:59.579Z,9.20
2019-04-09T20:08:51.396Z,8.90
2019-04-09T20:13:41.405Z,8.60
2019-04-09T20:18:33.427Z,8.40
2019-04-09T20:23:23.689Z,8.10
2019-04-09T20:28:14.269Z,8.40
2019-04-09T20:33:05.956Z,8.70
2019-04-09T20:37:56.859Z,8.70
2019-04-09T20:42:48.795Z,8.10
2019-04-09T20:47:39.419Z,8.10
2019-04-09T20:52:30.338Z,7.90
2019-04-09T20:57:21.814Z,7.60
2019-04-09T21:02:15.888Z,7.50
2019-04-09T21:07:07.288Z,7.90
2019-04-09T21:11:57.084Z,8.30
2019-04-09T21:16:48.838Z,8.10
2019-04-09T21:21:39.311Z,7.80
2019-04-09T21:26:30.569Z,7.30
2019-04-09T21:31:21.688Z,7.30
2019-04-09T21:36:15.349Z,7.10
2019-04-09T21:41:03.398Z,7.10
2019-04-09T21:45:55.069Z,7.70
2019-04-09T21:50:46.843Z,7.70
2019-04-09T21:55:36.950Z,7.40
2019-04-09T22:00:28.773Z,7.20
2019-04-09T22:05:18.804Z,6.90
2019-04-09T22:10:11.308Z,6.50
2019-04-09T22:15:02.680Z,6.50
2019-04-09T22:19:52.663Z,6.70
2019-04-09T22:24:43.760Z,7.20
2019-04-09T22:29:35.065Z,7.00
2019-04-09T22:34:26.278Z,6.90
2019-04-09T22:39:17.116Z,6.70
2019-04-09T22:44:08.715Z,6.40
2019-04-09T22:49:00.442Z,6.00
2019-04-09T22:53:52.567Z,6.20
2019-04-09T22:58:42.319Z,6.20
2019-04-09T23:03:44.099Z,6.80
2019-04-09T23:08:36.906Z,6.50
2019-04-09T23:13:26.927Z,6.50
2019-04-09T23:18:17.771Z,6.30
2019-04-09T23:23:08.977Z,6.00
2019-04-09T23:27:59.609Z,5.80
2019-04-09T23:32:50.524Z,5.60
2019-04-09T23:37:41.441Z,5.60
2019-04-09T23:42:32.863Z,6.20
2019-04-09T23:47:23.332Z,6.30
2019-04-09T23:52:14.703Z,6.10
2019-04-09T23:57:05.573Z,5.80
